Time;durP1;ratioP1;P1;durP2;ratioP2;P2;SDS_P1;SDS_P2;PMS_P1;PMS_P2;Temp;Humidity;BMP_temperature;BMP_pressure;BME280_temperature;BME280_humidity;BME280_pressure;Samples;Min_cycle;Max_cycle;Signal;HPM_P1;HPM_P2
2023/01/22 11:56:03;;;;;;;3.13;1.20;;;11.50;61.40;;;;;;5109924;27;1288639;-77
2023/01/22 11:59:08;;;;;;;5.93;1.10;;;11.30;71.60;;;;;;5128457;28;20036;-75
2023/01/22 12:01:59;;;;;;;3.30;1.23;;;11.10;94.10;;;;;;5128277;28;20031;-76
2023/01/22 12:05:08;;;;;;;1.48;0.98;;;11.10;67.90;;;;;;5109988;28;20039;-76
2023/01/22 12:08:03;;;;;;;1.83;0.98;;;10.90;66.20;;;;;;5109880;28;20470;-78
2023/01/22 12:11:00;;;;;;;1.98;1.00;;;10.90;64.70;;;;;;5109948;28;20019;-77
2023/01/22 12:13:55;;;;;;;0.88;0.80;;;10.90;64.60;;;;;;5108540;28;20169;-77
2023/01/22 12:16:43;;;;;;;0.85;0.75;;;10.90;64.90;;;;;;5109741;28;20043;-77
2023/01/22 12:19:46;;;;;;;1.15;1.05;;;11.40;69.70;;;;;;5109977;28;20435;-77
2023/01/22 12:22:38;;;;;;;2.80;0.82;;;10.90;92.60;;;;;;5109577;28;20107;-76
2023/01/22 12:25:14;;;;;;;0.80;0.70;;;10.90;92.50;;;;;;5109431;28;20023;-78
2023/01/22 12:27:52;;;;;;;0.80;0.80;;;10.90;65.80;;;;;;5109585;28;20427;-78
2023/01/22 12:30:25;;;;;;;1.42;0.98;;;11.00;65.60;;;;;;5109531;28;20355;-78
2023/01/22 12:32:58;;;;;;;1.42;0.80;;;11.40;70.60;;;;;;5109307;28;20072;-87
2023/01/22 12:35:27;;;;;;;0.77;0.77;;;11.20;69.60;;;;;;5110226;28;20091;-94
2023/01/22 12:38:24;;;;;;;0.70;0.70;;;11.40;69.50;;;;;;5111383;28;20024;-87
2023/01/22 12:41:20;;;;;;;1.73;0.70;;;10.90;65.50;;;;;;5110206;28;20038;-86
2023/01/22 12:43:49;;;;;;;0.60;0.60;;;10.90;65.60;;;;;;5110907;28;20024;-92
2023/01/22 12:46:28;;;;;;;2.58;1.10;;;11.30;70.20;;;;;;5109138;28;20600;-85
2023/01/22 12:49:08;;;;;;;1.85;1.10;;;11.40;70.50;;;;;;5111327;28;20489;-91
2023/01/22 12:51:36;;;;;;;0.88;0.88;;;10.80;66.40;;;;;;5109823;28;20055;-76
2023/01/22 12:54:26;;;;;;;1.15;0.80;;;10.90;70.80;;;;;;5108719;28;20536;-76
2023/01/22 12:56:56;;;;;;;1.35;0.80;;;11.30;71.30;;;;;;5109290;28;20032;-75
2023/01/22 12:59:34;;;;;;;1.88;0.60;;;11.30;71.60;;;;;;5108853;28;20035;-76
2023/01/22 13:02:18;;;;;;;0.80;0.70;;;11.40;72.00;;;;;;5108726;28;20024;-76
2023/01/22 13:04:43;;;;;;;0.95;0.68;;;11.30;72.30;;;;;;5106513;28;20024;-76
2023/01/22 13:07:27;;;;;;;1.08;0.80;;;11.20;72.60;;;;;;5094836;28;20099;-76
2023/01/22 13:10:18;;;;;;;2.05;0.90;;;11.40;73.40;;;;;;5095244;28;20028;-76
2023/01/22 13:12:50;;;;;;;2.95;1.13;;;10.90;69.80;;;;;;5095330;28;20043;-76
2023/01/22 13:15:28;;;;;;;1.63;0.80;;;11.30;74.30;;;;;;5095143;28;20115;-76
2023/01/22 13:17:58;;;;;;;0.80;0.80;;;11.40;75.10;;;;;;5095237;28;20067;-76
2023/01/22 13:20:26;;;;;;;0.77;0.70;;;11.40;75.30;;;;;;5095189;28;20024;-76
2023/01/22 13:22:54;;;;;;;1.10;0.90;;;11.60;75.80;;;;;;5094853;28;20055;-76
2023/01/22 13:25:23;;;;;;;1.60;0.70;;;11.30;76.10;;;;;;5094879;28;20024;-76
2023/01/22 13:27:49;;;;;;;1.48;0.77;;;10.90;76.00;;;;;;5095416;28;20020;-89
2023/01/22 13:30:18;;;;;;;1.75;0.80;;;11.20;76.40;;;;;;5095594;28;20024;-88
2023/01/22 13:32:43;;;;;;;1.85;0.70;;;10.90;75.30;;;;;;5095726;28;20028;-90
2023/01/22 13:35:12;;;;;;;1.58;0.95;;;11.40;76.70;;;;;;5095771;28;20042;-90
2023/01/22 13:37:40;;;;;;;2.30;0.80;;;10.90;95.50;;;;;;5095926;28;20030;-90
2023/01/22 13:40:26;;;;;;;1.30;0.98;;;11.20;76.30;;;;;;5096128;28;20063;-89
2023/01/22 13:42:53;;;;;;;1.15;0.73;;;10.90;72.40;;;;;;5094024;28;20016;-88
2023/01/22 13:45:23;;;;;;;1.15;0.68;;;11.50;76.20;;;;;;5095239;28;20036;-89
2023/01/22 13:47:51;;;;;;;;;;;11.00;76.10;;;;;;5095235;28;20433;-76
2023/01/22 13:50:22;;;;;;;1.85;0.63;;;11.10;75.90;;;;;;5094576;28;19911;-76
2023/01/22 13:52:49;;;;;;;1.35;0.80;;;11.00;75.60;;;;;;5094687;28;20024;-76
2023/01/22 13:55:25;;;;;;;0.80;0.57;;;11.00;75.60;;;;;;5094141;28;20072;-76
2023/01/22 13:57:54;;;;;;;1.58;0.63;;;10.90;75.70;;;;;;5094313;28;20535;-76
2023/01/22 14:00:21;;;;;;;0.73;0.60;;;11.00;75.80;;;;;;5094474;28;20413;-76
2023/01/22 14:02:46;;;;;;;0.77;0.73;;;10.90;74.50;;;;;;5094399;28;20078;-76
2023/01/22 14:05:19;;;;;;;1.10;0.50;;;11.30;76.20;;;;;;5095033;28;20020;-91
2023/01/22 14:07:45;;;;;;;2.00;0.70;;;11.10;76.40;;;;;;5095210;28;20115;-89
2023/01/22 14:10:29;;;;;;;0.90;0.70;;;11.00;76.20;;;;;;5095089;28;20077;-88
2023/01/22 14:13:06;;;;;;;0.80;0.80;;;10.90;76.20;;;;;;5094720;28;20023;-89
2023/01/22 14:15:32;;;;;;;1.05;0.50;;;10.90;72.40;;;;;;5094864;28;20024;-90
2023/01/22 14:18:10;;;;;;;1.27;0.80;;;11.40;76.50;;;;;;5094258;28;20067;-89
2023/01/22 14:20:44;;;;;;;1.80;0.93;;;11.40;76.70;;;;;;5094565;28;20107;-88
2023/01/22 14:23:10;;;;;;;0.45;0.45;;;11.10;76.70;;;;;;5094354;28;20020;-77
2023/01/22 14:25:48;;;;;;;1.33;0.70;;;11.40;76.80;;;;;;5093839;28;20547;-76
2023/01/22 14:28:16;;;;;;;0.60;0.60;;;10.90;73.00;;;;;;5093934;28;20035;-76
2023/01/22 14:30:42;;;;;;;1.05;0.70;;;10.90;76.60;;;;;;5093460;28;20471;-77
2023/01/22 14:33:16;;;;;;;0.90;0.80;;;10.90;77.00;;;;;;5093765;28;20047;-77
2023/01/22 14:35:42;;;;;;;0.80;0.50;;;10.90;77.00;;;;;;5092108;28;20115;-76
2023/01/22 14:38:07;;;;;;;2.58;0.88;;;11.00;77.30;;;;;;5093411;28;20055;-77
2023/01/22 14:40:33;;;;;;;2.10;0.70;;;11.00;77.30;;;;;;5093517;28;20111;-90
2023/01/22 14:43:00;;;;;;;0.60;0.60;;;10.90;77.00;;;;;;5092073;28;20027;-77
2023/01/22 14:45:26;;;;;;;1.33;0.70;;;11.30;77.50;;;;;;5092017;28;20023;-77
2023/01/22 14:47:54;;;;;;;0.73;0.50;;;10.90;85.20;;;;;;5093224;28;20024;-77
2023/01/22 14:50:21;;;;;;;0.77;0.68;;;11.20;87.60;;;;;;5093331;28;20534;-77
2023/01/22 14:52:48;;;;;;;1.30;0.73;;;11.10;89.80;;;;;;5091828;28;20020;-76
2023/01/22 14:55:13;;;;;;;1.85;0.50;;;11.00;83.90;;;;;;5091690;28;20044;-76
2023/01/22 14:57:40;;;;;;;0.80;0.60;;;10.90;81.90;;;;;;5092990;28;20031;-76
2023/01/22 15:00:07;;;;;;;1.20;0.60;;;11.40;82.60;;;;;;5093394;28;20028;-87
2023/01/22 15:02:36;;;;;;;1.20;0.70;;;10.90;83.00;;;;;;5093705;28;20025;-88
2023/01/22 15:05:02;;;;;;;0.88;0.50;;;10.90;88.90;;;;;;5093631;28;20108;-90
2023/01/22 15:07:28;;;;;;;1.10;0.70;;;10.40;80.70;;;;;;5094076;28;20588;-89
2023/01/22 15:09:54;;;;;;;0.85;0.77;;;11.20;85.10;;;;;;5093765;28;20036;-88
2023/01/22 15:12:20;;;;;;;1.88;1.05;;;11.40;86.10;;;;;;5092500;28;20068;-88
2023/01/22 15:14:45;;;;;;;2.08;1.70;;;11.20;88.50;;;;;;5093623;28;20054;-89
2023/01/22 15:17:11;;;;;;;2.72;2.50;;;11.10;90.00;;;;;;5093651;28;20486;-77
2023/01/22 15:19:37;;;;;;;3.58;3.30;;;11.50;90.20;;;;;;5092808;28;20032;-76
2023/01/22 15:22:02;;;;;;;5.43;5.03;;;11.20;90.60;;;;;;5091291;28;20016;-76
2023/01/22 15:24:28;;;;;;;6.43;5.93;;;11.00;90.30;;;;;;5092951;28;20024;-76
2023/01/22 15:26:54;;;;;;;9.80;9.00;;;11.00;91.80;;;;;;5092768;28;20190;-77
2023/01/22 15:29:20;;;;;;;13.52;12.32;;;11.30;90.40;;;;;;5092605;28;20024;-76
2023/01/22 15:31:46;;;;;;;16.20;14.82;;;10.90;91.00;;;;;;5092750;28;20024;-76
2023/01/22 15:34:12;;;;;;;20.30;18.30;;;11.20;90.70;;;;;;5092509;28;20051;-77
2023/01/22 15:36:40;;;;;;;21.73;19.83;;;11.30;90.50;;;;;;5091229;28;20024;-76
2023/01/22 15:39:07;;;;;;;25.90;23.75;;;11.20;88.10;;;;;;5092414;28;20024;-76
2023/01/22 15:41:34;;;;;;;30.00;27.30;;;11.30;91.10;;;;;;5092270;28;20051;-76
2023/01/22 15:44:03;;;;;;;33.75;30.73;;;10.80;82.10;;;;;;5092021;28;20024;-76
2023/01/22 15:46:32;;;;;;;34.53;31.50;;;10.90;83.70;;;;;;5092326;28;20073;-76
2023/01/22 15:48:58;;;;;;;36.28;33.08;;;11.20;83.90;;;;;;5092141;28;20020;-75
2023/01/22 15:51:25;;;;;;;37.10;33.75;;;11.10;84.10;;;;;;5092346;28;20020;-75
2023/01/22 15:53:53;;;;;;;36.72;33.30;;;11.40;83.40;;;;;;5092098;28;20036;-76
2023/01/22 15:56:20;;;;;;;36.15;32.92;;;11.20;83.30;;;;;;5092294;28;20515;-76
2023/01/22 15:58:49;;;;;;;36.95;33.70;;;10.90;83.20;;;;;;5092162;28;20043;-75
2023/01/22 16:01:15;;;;;;;36.17;32.88;;;11.00;83.20;;;;;;5092074;28;20482;-80
2023/01/22 16:03:40;;;;;;;35.45;32.13;;;11.30;83.20;;;;;;5091913;28;20028;-76
2023/01/22 16:06:18;;;;;;;35.05;31.88;;;10.90;83.10;;;;;;5091982;28;20024;-76
2023/01/22 16:08:45;;;;;;;33.33;30.33;;;11.20;83.20;;;;;;5092396;28;20025;-76
2023/01/22 16:11:13;;;;;;;31.73;28.83;;;11.30;83.40;;;;;;5092064;28;20093;-76
2023/01/22 16:13:39;;;;;;;33.80;30.70;;;10.90;83.00;;;;;;5091960;28;20556;-75
2023/01/22 16:16:17;;;;;;;32.78;30.00;;;11.30;83.00;;;;;;5092036;28;20039;-75
2023/01/22 16:18:43;;;;;;;32.50;29.60;;;11.10;82.80;;;;;;5092048;28;20055;-75
2023/01/22 16:21:10;;;;;;;30.23;27.63;;;11.10;82.90;;;;;;5091910;28;20039;-76
2023/01/22 16:23:37;;;;;;;30.27;27.58;;;10.80;82.40;;;;;;5091886;28;20479;-76
2023/01/22 16:26:08;;;;;;;31.00;28.30;;;11.30;82.80;;;;;;5091685;28;20043;-76
2023/01/22 16:28:35;;;;;;;29.60;26.88;;;11.20;82.90;;;;;;5092103;28;20410;-76
2023/01/22 16:31:06;;;;;;;30.02;27.23;;;10.90;82.70;;;;;;5091888;28;20044;-75
2023/01/22 16:33:34;;;;;;;27.63;25.23;;;11.20;82.90;;;;;;5092413;28;20543;-88
2023/01/22 16:36:06;;;;;;;25.77;23.58;;;10.80;82.40;;;;;;5092615;28;20487;-94
2023/01/22 16:38:33;;;;;;;28.25;25.85;;;10.80;79.00;;;;;;5093645;28;20021;-92
2023/01/22 16:41:15;;;;;;;26.20;23.90;;;11.20;83.30;;;;;;5094881;28;20020;-91
2023/01/22 16:43:40;;;;;;;25.88;23.63;;;11.30;83.20;;;;;;5097164;28;20024;-90
2023/01/22 16:46:08;;;;;;;24.27;22.20;;;11.10;82.80;;;;;;5096574;28;20016;-92
2023/01/22 16:48:34;;;;;;;25.70;23.50;;;11.20;82.80;;;;;;5095845;28;20024;-87
2023/01/22 16:50:59;;;;;;;25.55;23.13;;;10.80;82.60;;;;;;5094846;28;20372;-76
2023/01/22 16:53:25;;;;;;;23.55;21.48;;;11.10;82.80;;;;;;5095091;28;20126;-76
2023/01/22 16:55:50;;;;;;;22.48;20.65;;;11.00;82.60;;;;;;5095411;28;20025;-76
2023/01/22 16:58:16;;;;;;;22.73;20.73;;;10.90;82.70;;;;;;5095341;28;20039;-75
2023/01/22 17:00:41;;;;;;;21.60;19.73;;;11.20;82.90;;;;;;5095648;28;20040;-76
2023/01/22 17:03:07;;;;;;;21.75;19.95;;;11.20;82.70;;;;;;5095184;28;20028;-76
2023/01/22 17:05:33;;;;;;;21.65;19.65;;;10.80;82.10;;;;;;5076922;28;20028;-77
2023/01/22 17:07:58;;;;;;;20.02;18.33;;;10.70;83.10;;;;;;5095276;28;20027;-90
2023/01/22 17:10:24;;;;;;;19.58;18.05;;;10.70;82.60;;;;;;5096270;28;20173;-90
2023/01/22 17:12:50;;;;;;;19.77;18.08;;;11.10;82.70;;;;;;5096330;28;20032;-93
2023/01/22 17:15:16;;;;;;;19.33;17.60;;;10.80;82.50;;;;;;5096123;28;20032;-90
2023/01/22 17:17:41;;;;;;;20.30;18.50;;;10.70;82.30;;;;;;5095789;28;20077;-91
2023/01/22 17:20:08;;;;;;;18.80;17.17;;;11.30;82.20;;;;;;5096024;28;20028;-90
2023/01/22 17:22:34;;;;;;;18.90;17.27;;;10.70;81.10;;;;;;5095573;28;20020;-86
2023/01/22 17:25:00;;;;;;;17.13;15.63;;;10.80;82.20;;;;;;5095141;28;20024;-88
2023/01/22 17:27:26;;;;;;;16.70;15.30;;;10.70;82.40;;;;;;5094944;28;20047;-76
2023/01/22 17:29:51;;;;;;;17.08;15.48;;;11.20;82.60;;;;;;5095131;28;20071;-76
2023/01/22 17:32:17;;;;;;;15.75;14.45;;;11.10;82.30;;;;;;5094995;28;20024;-78
2023/01/22 17:34:43;;;;;;;15.05;13.75;;;11.00;82.50;;;;;;5094668;28;20047;-78
2023/01/22 17:37:09;;;;;;;15.30;14.07;;;11.10;82.40;;;;;;5094745;28;20137;-77
2023/01/22 17:39:36;;;;;;;14.75;13.55;;;10.90;82.30;;;;;;5094660;28;20039;-77
2023/01/22 17:42:02;;;;;;;14.82;13.43;;;10.70;81.80;;;;;;5094700;28;20112;-76
2023/01/22 17:44:28;;;;;;;15.05;13.65;;;10.70;82.00;;;;;;5094546;28;20504;-91
2023/01/22 17:46:58;;;;;;;14.20;12.98;;;10.70;82.00;;;;;;5094636;28;20027;-76
2023/01/22 17:49:24;;;;;;;13.75;12.65;;;11.00;82.40;;;;;;5094344;28;20165;-76
2023/01/22 17:51:50;;;;;;;12.25;11.25;;;10.90;82.20;;;;;;5094348;28;20017;-76
2023/01/22 17:54:18;;;;;;;13.48;12.38;;;11.10;82.40;;;;;;5094092;28;20056;-76
2023/01/22 17:56:47;;;;;;;12.23;11.15;;;10.90;82.10;;;;;;5093244;28;20020;-76
2023/01/22 17:59:13;;;;;;;12.30;11.30;;;10.80;82.20;;;;;;5094211;28;20075;-77
2023/01/22 18:01:39;;;;;;;10.73;9.70;;;10.50;97.70;;;;;;5094061;28;20409;-76
2023/01/22 18:04:07;;;;;;;20.00;10.07;;;10.60;82.40;;;;;;5094295;28;20064;-77
2023/01/22 18:06:34;;;;;;;14.35;9.93;;;10.60;97.70;;;;;;5094098;28;20054;-77
2023/01/22 18:09:01;;;;;;;15.63;9.93;;;10.90;82.60;;;;;;5094025;28;20032;-76
2023/01/22 18:11:28;;;;;;;15.75;9.48;;;10.50;81.50;;;;;;5093862;28;20021;-77
2023/01/22 18:13:56;;;;;;;20.88;9.52;;;10.70;82.40;;;;;;5093901;28;20575;-76
2023/01/22 18:16:24;;;;;;;16.05;9.48;;;11.00;82.60;;;;;;5093836;28;20027;-76
2023/01/22 18:18:51;;;;;;;12.50;8.32;;;10.70;82.50;;;;;;5093808;28;20374;-77
2023/01/22 18:21:18;;;;;;;12.93;7.97;;;11.00;82.60;;;;;;5093897;28;20487;-76
2023/01/22 18:23:44;;;;;;;13.38;7.93;;;10.90;82.50;;;;;;5095502;28;20148;-93
2023/01/22 18:26:11;;;;;;;15.40;7.88;;;10.90;83.40;;;;;;5095160;28;20032;-89
2023/01/22 18:28:37;;;;;;;12.88;8.30;;;11.00;82.60;;;;;;5094929;28;20117;-85
2023/01/22 18:31:12;;;;;;;9.38;7.22;;;10.80;82.50;;;;;;5095079;28;20028;-89
2023/01/22 18:33:38;;;;;;;9.40;6.38;;;10.60;79.20;;;;;;5095238;28;20031;-93
2023/01/22 18:36:09;;;;;;;8.00;6.07;;;11.00;82.80;;;;;;5095364;28;20034;-92
2023/01/22 18:38:36;;;;;;;10.27;6.90;;;10.60;81.00;;;;;;5095656;28;20024;-91
2023/01/22 18:41:24;;;;;;;10.57;6.20;;;10.90;82.90;;;;;;5094466;28;20024;-75
2023/01/22 18:43:54;;;;;;;10.23;6.53;;;11.00;82.70;;;;;;5093331;28;20020;-76
2023/01/22 18:46:21;;;;;;;9.82;6.10;;;11.30;82.90;;;;;;5093368;28;20027;-76
2023/01/22 18:48:52;;;;;;;7.75;5.20;;;11.00;83.40;;;;;;5093376;28;20024;-76
2023/01/22 18:51:17;;;;;;;7.57;5.63;;;10.90;82.80;;;;;;5092325;28;20043;-74
2023/01/22 18:53:43;;;;;;;7.88;5.00;;;10.80;82.60;;;;;;5093800;28;20039;-77
2023/01/22 18:56:10;;;;;;;5.22;4.50;;;11.00;82.80;;;;;;5095059;28;20024;-75
2023/01/22 18:58:37;;;;;;;6.80;4.72;;;11.00;82.90;;;;;;5093521;28;20028;-86
2023/01/22 19:01:25;;;;;;;8.55;4.93;;;10.90;82.90;;;;;;5095192;28;20035;-94
2023/01/22 19:03:57;;;;;;;7.30;4.68;;;10.60;98.00;;;;;;5094644;28;20055;-94
2023/01/22 19:06:25;;;;;;;4.47;3.80;;;10.90;83.20;;;;;;5094937;28;20032;-88
2023/01/22 19:08:56;;;;;;;4.63;4.20;;;10.90;83.10;;;;;;5094439;28;20024;-89
2023/01/22 19:11:22;;;;;;;10.27;5.13;;;11.00;83.10;;;;;;5094960;28;20024;-87
2023/01/22 19:13:52;;;;;;;4.75;3.80;;;11.10;83.20;;;;;;5093787;28;20363;-88
2023/01/22 19:16:17;;;;;;;5.00;4.00;;;10.70;83.10;;;;;;5093966;28;20024;-87
2023/01/22 19:18:47;;;;;;;7.05;4.03;;;10.70;83.00;;;;;;5093817;28;20031;-87
2023/01/22 19:21:18;;;;;;;4.88;3.70;;;11.10;83.40;;;;;;5094237;28;20020;-89
2023/01/22 19:23:46;;;;;;;5.10;3.97;;;10.80;83.20;;;;;;5093752;28;20028;-87
2023/01/22 19:26:15;;;;;;;4.05;3.10;;;10.90;83.20;;;;;;5094621;28;20024;-89
2023/01/22 19:28:41;;;;;;;7.63;3.55;;;10.90;83.20;;;;;;5094220;28;20028;-88
2023/01/22 19:31:18;;;;;;;5.82;3.35;;;10.90;83.00;;;;;;5094607;28;20086;-89
2023/01/22 19:33:44;;;;;;;3.35;3.00;;;10.90;83.10;;;;;;5094174;28;20051;-88
2023/01/22 19:36:10;;;;;;;3.47;2.80;;;11.00;83.10;;;;;;5093785;28;20024;-77
2023/01/22 19:38:36;;;;;;;8.80;3.40;;;11.00;83.30;;;;;;5092578;28;20492;-77
2023/01/22 19:41:02;;;;;;;6.28;3.40;;;11.10;83.10;;;;;;5092449;28;20032;-77
2023/01/22 19:43:28;;;;;;;9.02;2.80;;;11.10;83.10;;;;;;5091121;28;20016;-77
2023/01/22 19:45:54;;;;;;;4.18;3.00;;;11.10;83.50;;;;;;5092415;28;20031;-77
2023/01/22 19:48:20;;;;;;;5.40;3.38;;;11.20;83.20;;;;;;5092308;28;20027;-77
2023/01/22 19:50:46;;;;;;;5.45;2.78;;;11.30;83.30;;;;;;5092473;28;20058;-77
2023/01/22 19:53:12;;;;;;;5.07;2.75;;;11.10;83.10;;;;;;5090909;28;20062;-77
2023/01/22 19:55:38;;;;;;;4.45;2.92;;;11.40;83.20;;;;;;5093437;28;20115;-91
2023/01/22 19:58:04;;;;;;;3.00;2.45;;;11.20;82.60;;;;;;5093326;28;20041;-89
2023/01/22 20:00:31;;;;;;;4.47;2.85;;;11.10;82.80;;;;;;5093456;28;20028;-90
2023/01/22 20:02:56;;;;;;;4.30;2.60;;;11.30;83.70;;;;;;5093373;28;20382;-91
2023/01/22 20:05:23;;;;;;;4.53;2.65;;;11.20;83.00;;;;;;5093590;28;20135;-91
2023/01/22 20:07:48;;;;;;;5.00;2.88;;;11.20;82.10;;;;;;5093528;28;20035;-89
2023/01/22 20:10:17;;;;;;;3.85;2.92;;;11.30;82.80;;;;;;5093271;28;20482;-91
2023/01/22 20:12:44;;;;;;;4.10;3.10;;;11.20;82.50;;;;;;5093900;28;20013;-92
2023/01/22 20:15:10;;;;;;;4.65;2.15;;;11.20;82.80;;;;;;5093780;28;20062;-90
2023/01/22 20:17:36;;;;;;;3.60;2.78;;;11.20;82.00;;;;;;5097289;28;20028;-90
2023/01/22 20:20:03;;;;;;;4.65;2.90;;;11.20;82.80;;;;;;5096992;28;20380;-89
2023/01/22 20:22:29;;;;;;;3.20;2.60;;;11.30;82.90;;;;;;5096731;28;20040;-89
2023/01/22 20:24:55;;;;;;;3.35;2.65;;;11.30;82.70;;;;;;5097294;28;20035;-91
2023/01/22 20:27:20;;;;;;;3.70;2.40;;;11.40;82.70;;;;;;5096947;28;20052;-88
2023/01/22 20:29:46;;;;;;;3.17;2.28;;;11.30;82.60;;;;;;5096819;28;20070;-87
2023/01/22 20:32:12;;;;;;;4.25;2.55;;;11.30;82.60;;;;;;5096043;28;20028;-77
2023/01/22 20:34:38;;;;;;;2.63;2.20;;;11.50;82.80;;;;;;5095774;28;20039;-78
2023/01/22 20:37:03;;;;;;;4.28;2.30;;;11.30;82.60;;;;;;5095677;28;20028;-78
2023/01/22 20:39:29;;;;;;;3.15;2.22;;;11.30;82.60;;;;;;5095757;28;20035;-77
2023/01/22 20:41:54;;;;;;;3.33;2.15;;;11.40;82.70;;;;;;5095664;28;20169;-77
2023/01/22 20:44:20;;;;;;;2.95;1.92;;;11.40;83.40;;;;;;5095620;28;20027;-77
2023/01/22 20:46:47;;;;;;;2.13;1.92;;;11.50;82.70;;;;;;5095603;28;20386;-77
2023/01/22 20:49:13;;;;;;;2.95;2.10;;;11.40;82.50;;;;;;5095706;28;20473;-78
2023/01/22 20:51:40;;;;;;;2.28;1.85;;;11.30;82.60;;;;;;5095540;28;20051;-78
2023/01/22 20:54:06;;;;;;;2.85;2.30;;;11.60;82.70;;;;;;5095098;28;20040;-77
2023/01/22 20:56:32;;;;;;;3.53;2.00;;;11.40;82.40;;;;;;5095476;28;20020;-77
2023/01/22 20:59:04;;;;;;;2.17;1.70;;;11.40;82.50;;;;;;5095308;28;20474;-77
2023/01/22 21:01:30;;;;;;;1.80;1.60;;;11.40;97.90;;;;;;5094022;28;20401;-77
2023/01/22 21:03:57;;;;;;;3.72;2.05;;;11.50;82.60;;;;;;5095232;28;20031;-77
2023/01/22 21:06:26;;;;;;;2.50;1.83;;;11.40;82.50;;;;;;5095192;28;20030;-77
2023/01/22 21:08:54;;;;;;;2.40;1.85;;;11.70;83.30;;;;;;5094220;28;20111;-77
2023/01/22 21:11:21;;;;;;;3.92;2.53;;;11.50;82.50;;;;;;5095212;28;20101;-77
2023/01/22 21:13:49;;;;;;;1.98;1.70;;;11.50;83.50;;;;;;5095271;28;20111;-77
2023/01/22 21:16:25;;;;;;;2.38;1.95;;;11.50;82.60;;;;;;5095277;28;20043;-77
2023/01/22 21:18:56;;;;;;;1.77;1.63;;;11.50;82.50;;;;;;5095078;28;20039;-77
2023/01/22 21:21:22;;;;;;;3.22;2.03;;;11.50;82.90;;;;;;5094963;28;20028;-77
2023/01/22 21:23:50;;;;;;;2.00;1.80;;;11.50;82.40;;;;;;5094971;28;20417;-78
2023/01/22 21:26:21;;;;;;;2.15;1.65;;;11.50;82.50;;;;;;5093287;28;20024;-77
2023/01/22 21:28:48;;;;;;;2.90;1.80;;;11.50;82.70;;;;;;5094914;28;20359;-77
2023/01/22 21:31:17;;;;;;;2.40;2.05;;;11.60;82.60;;;;;;5094837;28;20114;-76
2023/01/22 21:33:43;;;;;;;2.40;1.75;;;11.50;82.50;;;;;;5094703;28;20489;-76
2023/01/22 21:36:10;;;;;;;2.90;1.92;;;11.50;82.50;;;;;;5094685;28;20028;-76
2023/01/22 21:38:37;;;;;;;1.75;1.55;;;11.50;82.50;;;;;;5094643;28;20553;-76
2023/01/22 21:41:06;;;;;;;2.30;1.85;;;11.10;82.20;;;;;;5094658;28;20391;-77
2023/01/22 21:46:26;;;;;;;2.10;1.60;;;11.70;79.90;;;;;;5095066;28;20031;-87
2023/01/22 21:48:57;;;;;;;2.72;1.73;;;11.50;82.70;;;;;;5094640;28;20028;-83
2023/01/22 21:51:28;;;;;;;2.35;1.80;;;11.70;82.80;;;;;;5094613;28;20031;-86
2023/01/22 21:53:57;;;;;;;2.17;1.70;;;11.50;82.80;;;;;;5094162;28;20051;-86
2023/01/22 21:56:23;;;;;;;1.77;1.47;;;11.50;82.90;;;;;;5094734;28;20017;-86
2023/01/22 21:58:49;;;;;;;2.03;1.77;;;11.50;82.60;;;;;;5094714;28;20601;-86
2023/01/22 22:01:19;;;;;;;1.88;1.60;;;11.50;82.50;;;;;;5094384;28;20034;-86
2023/01/22 22:03:45;;;;;;;2.60;1.63;;;11.40;82.60;;;;;;5094503;28;20099;-77
2023/01/22 22:06:12;;;;;;;2.30;1.73;;;11.50;82.60;;;;;;5094079;28;20378;-77
2023/01/22 22:08:39;;;;;;;2.42;1.70;;;11.60;82.80;;;;;;5093924;28;20382;-77
2023/01/22 22:11:06;;;;;;;1.75;1.50;;;11.50;82.70;;;;;;5094274;28;20344;-77
2023/01/22 22:13:33;;;;;;;1.67;1.58;;;11.50;82.80;;;;;;5092416;28;20051;-77
2023/01/22 22:16:04;;;;;;;1.90;1.70;;;11.50;82.90;;;;;;5093853;28;20429;-77
2023/01/22 22:18:30;;;;;;;4.30;2.00;;;11.50;82.30;;;;;;5093729;28;20024;-77
2023/01/22 22:21:04;;;;;;;2.03;1.23;;;11.50;82.60;;;;;;5093968;28;20032;-77
2023/01/22 22:23:30;;;;;;;2.95;1.75;;;11.50;82.40;;;;;;5093742;28;20068;-77
2023/01/22 22:25:56;;;;;;;2.10;1.60;;;11.60;82.60;;;;;;5094040;28;20098;-77
2023/01/22 22:28:23;;;;;;;1.80;1.30;;;11.30;82.50;;;;;;5093680;28;20110;-77
2023/01/22 22:30:49;;;;;;;1.50;1.40;;;11.50;83.40;;;;;;5093566;28;20020;-77
2023/01/22 22:33:15;;;;;;;1.70;1.50;;;11.50;82.80;;;;;;5093605;28;20032;-77
2023/01/22 22:35:44;;;;;;;2.17;1.50;;;11.50;82.60;;;;;;5093673;28;20024;-77
2023/01/22 22:38:09;;;;;;;1.30;1.10;;;11.50;82.80;;;;;;5092618;28;20031;-77
2023/01/22 22:40:35;;;;;;;1.60;1.10;;;11.40;82.60;;;;;;5093505;28;20024;-77
2023/01/22 22:43:00;;;;;;;1.48;1.38;;;11.40;82.70;;;;;;5093391;28;20058;-77
2023/01/22 22:45:26;;;;;;;2.45;1.50;;;11.70;83.00;;;;;;5093247;28;20012;-77
2023/01/22 22:47:52;;;;;;;1.42;1.33;;;11.40;82.80;;;;;;5093441;28;20039;-77
2023/01/22 22:50:18;;;;;;;1.77;1.50;;;11.40;82.80;;;;;;5093222;28;20024;-77
2023/01/22 22:52:44;;;;;;;2.33;1.30;;;11.40;82.90;;;;;;5093132;28;20059;-77
2023/01/22 22:55:10;;;;;;;1.63;1.40;;;11.40;82.80;;;;;;5092891;28;20051;-77
2023/01/22 22:57:36;;;;;;;1.50;1.40;;;11.50;79.00;;;;;;5093131;28;20099;-87
2023/01/22 23:00:09;;;;;;;1.48;1.38;;;11.40;82.90;;;;;;5093190;28;20103;-77
2023/01/22 23:02:34;;;;;;;1.35;1.10;;;11.40;81.80;;;;;;5092997;28;20158;-77
2023/01/22 23:05:00;;;;;;;1.52;1.40;;;11.40;83.10;;;;;;5092951;28;20099;-77
2023/01/22 23:07:25;;;;;;;1.35;1.20;;;11.40;83.20;;;;;;5092901;28;20092;-77
2023/01/22 23:09:52;;;;;;;1.23;1.13;;;11.50;83.20;;;;;;5092812;28;20035;-77
2023/01/22 23:12:17;;;;;;;2.42;1.48;;;11.40;82.70;;;;;;5092932;28;20024;-77
2023/01/22 23:14:43;;;;;;;2.53;1.10;;;11.40;82.90;;;;;;5092823;28;20516;-77
2023/01/22 23:17:08;;;;;;;1.70;1.60;;;11.40;83.00;;;;;;5091606;28;20111;-77
2023/01/22 23:19:34;;;;;;;1.80;1.38;;;11.40;82.90;;;;;;5092758;28;20028;-77
2023/01/22 23:22:00;;;;;;;1.65;1.42;;;11.60;83.20;;;;;;5092674;28;20489;-77
2023/01/22 23:24:26;;;;;;;1.30;1.20;;;11.30;83.00;;;;;;5092600;28;20071;-77
2023/01/22 23:26:52;;;;;;;1.30;1.20;;;11.40;82.80;;;;;;5092462;28;20016;-77
2023/01/22 23:29:21;;;;;;;1.73;1.20;;;11.30;83.20;;;;;;5092619;28;20032;-77
2023/01/22 23:31:47;;;;;;;2.53;1.20;;;11.70;83.50;;;;;;5092460;28;20035;-77
2023/01/22 23:34:15;;;;;;;1.52;1.25;;;11.40;83.10;;;;;;5091166;28;20031;-87
2023/01/22 23:36:43;;;;;;;1.67;1.15;;;11.60;83.40;;;;;;5093029;28;20066;-87
2023/01/22 23:39:10;;;;;;;1.85;1.40;;;11.30;83.90;;;;;;5092983;28;20070;-87
2023/01/22 23:41:36;;;;;;;2.25;1.05;;;11.30;83.30;;;;;;5092785;28;20094;-87
2023/01/22 23:44:02;;;;;;;0.98;0.98;;;11.30;83.20;;;;;;5092875;28;20048;-87
2023/01/22 23:46:29;;;;;;;1.42;1.23;;;11.30;83.20;;;;;;5092838;28;20429;-87
2023/01/22 23:48:57;;;;;;;1.30;1.20;;;11.60;83.50;;;;;;5092714;28;20048;-87
2023/01/22 23:51:24;;;;;;;1.92;1.27;;;11.30;83.40;;;;;;5092853;28;20020;-87
2023/01/22 23:53:51;;;;;;;1.23;0.90;;;11.30;83.40;;;;;;5092430;28;20048;-88
2023/01/22 23:56:21;;;;;;;1.52;1.10;;;11.30;83.30;;;;;;5092836;28;20020;-88
2023/01/22 23:58:46;;;;;;;;;;;11.40;83.60;;;;;;5093072;28;20465;-87
